KBGR

Bangor International Airport

Bangor, Maine, USA
METAR KBGR 221353Z 31011KT 10SM SCT045 03/M07 A3008 RMK AO2 SLP189 T00331072
Observed Flight Rules
Oct-22 @ 13:53 UTC (53 minutes ago) Visual Flight Rules
Wind Visibility Clouds
310° at 11 knots 10 miles
  • Scattered at 4,500' AGL
Temperatures Readings
Current 3°C / 37°F
Dewpoint -7°C / 19°F
Humidity 48%
Altimeter 30.08" Hg
Pressure 1018.9 hPa
Elevation 57
METAR KBGR 221353Z 31011KT 10SM SCT045 03/M07 A3008 RMK AO2 SLP189 T00331072
Observed Flight Rules
Oct-22 @ 13:53 UTC
(53 minutes ago)
VFR
Wind Visibility
310° at 11 knots 10 miles
Clouds
  • Scattered at 4,500' AGL
Temperature Dewpoint
3°C / 37°F -7°C / 19°F
Humidity Altimeter Pressure
48% 30.08" Hg 1018.9 hPa